sensor_id;sensor_type;location;lat;lon;timestamp;temperature;humidity
68476;DHT22;55464;48.266;14.188;2022-11-15T00:00:26;8.10;79.90
68476;DHT22;55464;48.266;14.188;2022-11-15T00:02:55;8.00;79.70
68476;DHT22;55464;48.266;14.188;2022-11-15T00:05:21;8.00;80.10
68476;DHT22;55464;48.266;14.188;2022-11-15T00:07:47;7.80;80.30
68476;DHT22;55464;48.266;14.188;2022-11-15T00:10:12;7.90;80.50
68476;DHT22;55464;48.266;14.188;2022-11-15T00:12:38;7.80;80.50
68476;DHT22;55464;48.266;14.188;2022-11-15T00:15:04;7.80;80.50
68476;DHT22;55464;48.266;14.188;2022-11-15T00:17:30;7.80;80.50
68476;DHT22;55464;48.266;14.188;2022-11-15T00:19:56;7.80;80.30
68476;DHT22;55464;48.266;14.188;2022-11-15T00:22:22;7.80;80.50
68476;DHT22;55464;48.266;14.188;2022-11-15T00:24:47;7.70;80.60
68476;DHT22;55464;48.266;14.188;2022-11-15T00:27:13;7.60;80.80
68476;DHT22;55464;48.266;14.188;2022-11-15T00:29:39;7.50;81.70
68476;DHT22;55464;48.266;14.188;2022-11-15T00:32:09;7.60;81.60
68476;DHT22;55464;48.266;14.188;2022-11-15T00:34:37;7.60;81.30
68476;DHT22;55464;48.266;14.188;2022-11-15T00:37:03;7.70;81.30
68476;DHT22;55464;48.266;14.188;2022-11-15T00:39:28;7.70;81.20
68476;DHT22;55464;48.266;14.188;2022-11-15T00:41:54;7.70;81.00
68476;DHT22;55464;48.266;14.188;2022-11-15T00:44:20;7.80;80.90
68476;DHT22;55464;48.266;14.188;2022-11-15T00:46:46;7.70;80.90
68476;DHT22;55464;48.266;14.188;2022-11-15T00:49:11;7.70;81.20
68476;DHT22;55464;48.266;14.188;2022-11-15T00:51:37;7.60;81.50
68476;DHT22;55464;48.266;14.188;2022-11-15T00:54:03;7.60;80.80
68476;DHT22;55464;48.266;14.188;2022-11-15T00:56:29;7.50;81.10
68476;DHT22;55464;48.266;14.188;2022-11-15T00:58:54;7.40;80.80
68476;DHT22;55464;48.266;14.188;2022-11-15T01:01:20;7.30;81.00
68476;DHT22;55464;48.266;14.188;2022-11-15T01:03:45;7.30;81.00
68476;DHT22;55464;48.266;14.188;2022-11-15T01:06:11;7.30;80.90
68476;DHT22;55464;48.266;14.188;2022-11-15T01:08:41;7.10;80.90
68476;DHT22;55464;48.266;14.188;2022-11-15T01:11:09;7.10;80.80
68476;DHT22;55464;48.266;14.188;2022-11-15T01:13:36;7.00;81.10
68476;DHT22;55464;48.266;14.188;2022-11-15T01:16:15;7.00;81.40
68476;DHT22;55464;48.266;14.188;2022-11-15T01:18:42;6.90;81.00
68476;DHT22;55464;48.266;14.188;2022-11-15T01:21:10;6.90;80.90
68476;DHT22;55464;48.266;14.188;2022-11-15T01:23:36;6.90;81.00
68476;DHT22;55464;48.266;14.188;2022-11-15T01:26:05;6.90;81.20
68476;DHT22;55464;48.266;14.188;2022-11-15T01:28:32;6.90;81.60
68476;DHT22;55464;48.266;14.188;2022-11-15T01:30:59;6.90;81.80
68476;DHT22;55464;48.266;14.188;2022-11-15T01:33:25;6.70;81.70
68476;DHT22;55464;48.266;14.188;2022-11-15T01:35:51;6.60;82.20
68476;DHT22;55464;48.266;14.188;2022-11-15T01:38:16;6.50;82.50
68476;DHT22;55464;48.266;14.188;2022-11-15T01:40:42;6.50;82.80
68476;DHT22;55464;48.266;14.188;2022-11-15T01:46:00;6.60;83.50
68476;DHT22;55464;48.266;14.188;2022-11-15T01:48:32;6.50;83.60
68476;DHT22;55464;48.266;14.188;2022-11-15T01:51:01;6.50;83.40
68476;DHT22;55464;48.266;14.188;2022-11-15T01:53:30;6.40;83.10
68476;DHT22;55464;48.266;14.188;2022-11-15T01:55:57;6.30;83.10
68476;DHT22;55464;48.266;14.188;2022-11-15T01:58:24;6.30;83.70
68476;DHT22;55464;48.266;14.188;2022-11-15T02:00:50;6.30;84.00
68476;DHT22;55464;48.266;14.188;2022-11-15T02:03:17;6.30;84.40
68476;DHT22;55464;48.266;14.188;2022-11-15T02:05:43;6.40;83.80
68476;DHT22;55464;48.266;14.188;2022-11-15T02:08:10;6.40;83.40
68476;DHT22;55464;48.266;14.188;2022-11-15T02:10:45;6.50;83.40
68476;DHT22;55464;48.266;14.188;2022-11-15T02:13:13;6.60;83.50
68476;DHT22;55464;48.266;14.188;2022-11-15T02:15:58;6.60;83.30
68476;DHT22;55464;48.266;14.188;2022-11-15T02:18:34;6.70;83.50
68476;DHT22;55464;48.266;14.188;2022-11-15T02:21:33;6.80;84.10
68476;DHT22;55464;48.266;14.188;2022-11-15T02:24:32;6.90;84.70
68476;DHT22;55464;48.266;14.188;2022-11-15T02:30:12;6.80;84.60
68476;DHT22;55464;48.266;14.188;2022-11-15T02:32:45;6.80;84.20
68476;DHT22;55464;48.266;14.188;2022-11-15T02:35:52;6.90;83.60
68476;DHT22;55464;48.266;14.188;2022-11-15T02:38:29;6.90;83.10
68476;DHT22;55464;48.266;14.188;2022-11-15T02:41:03;6.90;82.90
68476;DHT22;55464;48.266;14.188;2022-11-15T02:43:46;6.90;82.80
68476;DHT22;55464;48.266;14.188;2022-11-15T02:46:31;6.80;83.40
68476;DHT22;55464;48.266;14.188;2022-11-15T02:49:17;6.70;82.40
68476;DHT22;55464;48.266;14.188;2022-11-15T02:51:47;6.60;82.40
68476;DHT22;55464;48.266;14.188;2022-11-15T02:54:17;6.50;82.60
68476;DHT22;55464;48.266;14.188;2022-11-15T02:56:46;6.40;82.20
68476;DHT22;55464;48.266;14.188;2022-11-15T03:00:04;6.30;82.70
68476;DHT22;55464;48.266;14.188;2022-11-15T03:05:17;6.20;82.00
68476;DHT22;55464;48.266;14.188;2022-11-15T03:07:51;6.20;82.00
68476;DHT22;55464;48.266;14.188;2022-11-15T03:10:26;6.00;82.00
68476;DHT22;55464;48.266;14.188;2022-11-15T03:13:03;5.90;82.30
68476;DHT22;55464;48.266;14.188;2022-11-15T03:15:38;5.90;83.30
68476;DHT22;55464;48.266;14.188;2022-11-15T03:18:19;5.80;84.10
68476;DHT22;55464;48.266;14.188;2022-11-15T03:20:46;5.80;83.90
68476;DHT22;55464;48.266;14.188;2022-11-15T03:23:13;6.00;84.00
68476;DHT22;55464;48.266;14.188;2022-11-15T03:25:44;6.00;83.90
68476;DHT22;55464;48.266;14.188;2022-11-15T03:28:14;6.10;83.90
68476;DHT22;55464;48.266;14.188;2022-11-15T03:30:42;6.20;84.00
68476;DHT22;55464;48.266;14.188;2022-11-15T03:33:10;6.30;84.00
68476;DHT22;55464;48.266;14.188;2022-11-15T03:35:43;6.30;84.20
68476;DHT22;55464;48.266;14.188;2022-11-15T03:40:49;6.50;84.50
68476;DHT22;55464;48.266;14.188;2022-11-15T03:43:42;6.50;84.60
68476;DHT22;55464;48.266;14.188;2022-11-15T03:46:15;6.60;84.90
68476;DHT22;55464;48.266;14.188;2022-11-15T03:49:07;6.70;84.90
68476;DHT22;55464;48.266;14.188;2022-11-15T03:51:33;6.70;84.80
68476;DHT22;55464;48.266;14.188;2022-11-15T03:53:59;6.60;84.90
68476;DHT22;55464;48.266;14.188;2022-11-15T03:56:24;6.70;85.10
68476;DHT22;55464;48.266;14.188;2022-11-15T03:58:50;6.60;85.30
68476;DHT22;55464;48.266;14.188;2022-11-15T04:01:16;6.70;85.20
68476;DHT22;55464;48.266;14.188;2022-11-15T04:03:41;6.70;85.20
68476;DHT22;55464;48.266;14.188;2022-11-15T04:06:07;6.80;85.00
68476;DHT22;55464;48.266;14.188;2022-11-15T04:08:35;6.80;85.00
68476;DHT22;55464;48.266;14.188;2022-11-15T04:11:01;6.80;85.00
68476;DHT22;55464;48.266;14.188;2022-11-15T04:13:27;6.80;85.00
68476;DHT22;55464;48.266;14.188;2022-11-15T04:15:52;6.80;85.00
68476;DHT22;55464;48.266;14.188;2022-11-15T04:18:18;6.80;84.80
68476;DHT22;55464;48.266;14.188;2022-11-15T04:20:44;6.80;84.70
68476;DHT22;55464;48.266;14.188;2022-11-15T04:23:28;6.70;84.60
68476;DHT22;55464;48.266;14.188;2022-11-15T04:26:15;6.70;84.70
68476;DHT22;55464;48.266;14.188;2022-11-15T04:28:41;6.60;85.00
68476;DHT22;55464;48.266;14.188;2022-11-15T04:31:26;6.60;85.00
68476;DHT22;55464;48.266;14.188;2022-11-15T04:33:52;6.60;85.20
68476;DHT22;55464;48.266;14.188;2022-11-15T04:36:18;6.60;85.20
68476;DHT22;55464;48.266;14.188;2022-11-15T04:39:02;6.50;85.10
68476;DHT22;55464;48.266;14.188;2022-11-15T04:41:28;6.60;84.90
68476;DHT22;55464;48.266;14.188;2022-11-15T04:43:54;6.50;84.80
68476;DHT22;55464;48.266;14.188;2022-11-15T04:46:20;6.50;84.70
68476;DHT22;55464;48.266;14.188;2022-11-15T04:48:46;6.50;84.60
68476;DHT22;55464;48.266;14.188;2022-11-15T04:51:11;6.60;84.00
68476;DHT22;55464;48.266;14.188;2022-11-15T04:53:37;6.60;83.90
68476;DHT22;55464;48.266;14.188;2022-11-15T04:56:03;6.50;83.70
68476;DHT22;55464;48.266;14.188;2022-11-15T04:58:28;6.60;83.30
68476;DHT22;55464;48.266;14.188;2022-11-15T05:00:54;6.60;83.50
68476;DHT22;55464;48.266;14.188;2022-11-15T05:03:20;6.60;83.30
68476;DHT22;55464;48.266;14.188;2022-11-15T05:06:04;6.50;83.30
68476;DHT22;55464;48.266;14.188;2022-11-15T05:08:30;6.40;83.60
68476;DHT22;55464;48.266;14.188;2022-11-15T05:10:56;6.30;83.90
68476;DHT22;55464;48.266;14.188;2022-11-15T05:13:21;6.20;83.70
68476;DHT22;55464;48.266;14.188;2022-11-15T05:15:47;6.10;84.10
68476;DHT22;55464;48.266;14.188;2022-11-15T05:18:13;6.00;84.70
68476;DHT22;55464;48.266;14.188;2022-11-15T05:20:38;6.00;84.90
68476;DHT22;55464;48.266;14.188;2022-11-15T05:23:07;6.00;85.30
68476;DHT22;55464;48.266;14.188;2022-11-15T05:25:33;6.10;85.30
68476;DHT22;55464;48.266;14.188;2022-11-15T05:27:58;6.10;85.60
68476;DHT22;55464;48.266;14.188;2022-11-15T05:30:24;6.10;85.60
68476;DHT22;55464;48.266;14.188;2022-11-15T05:32:50;6.30;86.00
68476;DHT22;55464;48.266;14.188;2022-11-15T05:35:41;6.30;86.10
68476;DHT22;55464;48.266;14.188;2022-11-15T05:38:09;6.30;86.10
68476;DHT22;55464;48.266;14.188;2022-11-15T05:40:35;6.20;85.80
68476;DHT22;55464;48.266;14.188;2022-11-15T05:43:02;6.20;85.50
68476;DHT22;55464;48.266;14.188;2022-11-15T05:45:29;6.10;85.00
68476;DHT22;55464;48.266;14.188;2022-11-15T05:47:56;6.10;84.90
68476;DHT22;55464;48.266;14.188;2022-11-15T05:50:24;6.00;84.90
68476;DHT22;55464;48.266;14.188;2022-11-15T05:52:50;6.00;85.00
68476;DHT22;55464;48.266;14.188;2022-11-15T05:55:16;6.10;84.80
68476;DHT22;55464;48.266;14.188;2022-11-15T05:57:42;6.10;85.00
68476;DHT22;55464;48.266;14.188;2022-11-15T06:00:08;6.10;84.90
68476;DHT22;55464;48.266;14.188;2022-11-15T06:02:34;6.20;84.60
68476;DHT22;55464;48.266;14.188;2022-11-15T06:05:00;6.30;84.60
68476;DHT22;55464;48.266;14.188;2022-11-15T06:07:26;6.30;84.70
68476;DHT22;55464;48.266;14.188;2022-11-15T06:09:51;6.30;84.90
68476;DHT22;55464;48.266;14.188;2022-11-15T06:12:17;6.20;85.00
68476;DHT22;55464;48.266;14.188;2022-11-15T06:14:43;6.20;85.10
68476;DHT22;55464;48.266;14.188;2022-11-15T06:17:08;6.10;84.50
68476;DHT22;55464;48.266;14.188;2022-11-15T06:19:34;6.10;84.30
68476;DHT22;55464;48.266;14.188;2022-11-15T06:22:00;6.00;83.90
68476;DHT22;55464;48.266;14.188;2022-11-15T06:24:25;5.90;84.30
68476;DHT22;55464;48.266;14.188;2022-11-15T06:26:51;5.80;84.50
68476;DHT22;55464;48.266;14.188;2022-11-15T06:29:17;5.90;84.40
68476;DHT22;55464;48.266;14.188;2022-11-15T06:31:42;5.90;84.20
68476;DHT22;55464;48.266;14.188;2022-11-15T06:34:08;5.80;83.50
68476;DHT22;55464;48.266;14.188;2022-11-15T06:36:35;5.70;83.20
68476;DHT22;55464;48.266;14.188;2022-11-15T06:39:04;5.70;83.30
68476;DHT22;55464;48.266;14.188;2022-11-15T06:41:30;5.60;83.00
68476;DHT22;55464;48.266;14.188;2022-11-15T06:43:57;5.40;83.50
68476;DHT22;55464;48.266;14.188;2022-11-15T06:46:23;5.40;84.50
68476;DHT22;55464;48.266;14.188;2022-11-15T06:48:51;5.50;84.80
68476;DHT22;55464;48.266;14.188;2022-11-15T06:51:16;5.50;85.70
68476;DHT22;55464;48.266;14.188;2022-11-15T06:53:42;5.50;86.00
68476;DHT22;55464;48.266;14.188;2022-11-15T06:56:08;5.70;86.10
68476;DHT22;55464;48.266;14.188;2022-11-15T06:58:34;5.70;86.20
68476;DHT22;55464;48.266;14.188;2022-11-15T07:01:04;5.90;86.40
68476;DHT22;55464;48.266;14.188;2022-11-15T07:03:30;6.00;86.30
68476;DHT22;55464;48.266;14.188;2022-11-15T07:05:57;6.00;86.40
68476;DHT22;55464;48.266;14.188;2022-11-15T07:08:23;6.10;86.20
68476;DHT22;55464;48.266;14.188;2022-11-15T07:10:49;6.10;86.20
68476;DHT22;55464;48.266;14.188;2022-11-15T07:13:15;6.10;86.30
68476;DHT22;55464;48.266;14.188;2022-11-15T07:15:41;6.10;86.60
68476;DHT22;55464;48.266;14.188;2022-11-15T07:18:06;6.10;86.70
68476;DHT22;55464;48.266;14.188;2022-11-15T07:20:32;6.10;86.90
68476;DHT22;55464;48.266;14.188;2022-11-15T07:23:02;6.10;87.00
68476;DHT22;55464;48.266;14.188;2022-11-15T07:25:28;6.10;87.30
68476;DHT22;55464;48.266;14.188;2022-11-15T07:27:55;5.90;87.80
68476;DHT22;55464;48.266;14.188;2022-11-15T07:30:21;6.00;88.20
68476;DHT22;55464;48.266;14.188;2022-11-15T07:32:47;6.00;88.60
68476;DHT22;55464;48.266;14.188;2022-11-15T07:35:12;5.90;88.60
68476;DHT22;55464;48.266;14.188;2022-11-15T07:37:38;5.80;89.00
68476;DHT22;55464;48.266;14.188;2022-11-15T07:40:04;5.80;89.10
68476;DHT22;55464;48.266;14.188;2022-11-15T07:42:33;5.80;89.50
68476;DHT22;55464;48.266;14.188;2022-11-15T07:45:17;5.80;89.70
68476;DHT22;55464;48.266;14.188;2022-11-15T07:47:45;5.80;89.70
68476;DHT22;55464;48.266;14.188;2022-11-15T07:50:11;5.80;89.80
68476;DHT22;55464;48.266;14.188;2022-11-15T07:52:37;5.90;89.70
68476;DHT22;55464;48.266;14.188;2022-11-15T07:55:03;6.00;89.50
68476;DHT22;55464;48.266;14.188;2022-11-15T07:57:29;5.90;89.30
68476;DHT22;55464;48.266;14.188;2022-11-15T07:59:55;5.90;89.30
68476;DHT22;55464;48.266;14.188;2022-11-15T08:02:21;5.80;89.30
68476;DHT22;55464;48.266;14.188;2022-11-15T08:04:46;5.80;89.60
68476;DHT22;55464;48.266;14.188;2022-11-15T08:07:12;5.90;89.30
68476;DHT22;55464;48.266;14.188;2022-11-15T08:09:38;6.00;89.20
68476;DHT22;55464;48.266;14.188;2022-11-15T08:12:04;6.00;89.30
68476;DHT22;55464;48.266;14.188;2022-11-15T08:14:30;6.10;89.50
68476;DHT22;55464;48.266;14.188;2022-11-15T08:16:55;6.10;89.30
68476;DHT22;55464;48.266;14.188;2022-11-15T08:19:21;6.10;89.30
68476;DHT22;55464;48.266;14.188;2022-11-15T08:21:46;6.10;89.40
68476;DHT22;55464;48.266;14.188;2022-11-15T08:24:12;6.10;89.50
68476;DHT22;55464;48.266;14.188;2022-11-15T08:26:38;6.10;89.70
68476;DHT22;55464;48.266;14.188;2022-11-15T08:29:05;6.20;89.70
68476;DHT22;55464;48.266;14.188;2022-11-15T08:31:31;6.20;89.80
68476;DHT22;55464;48.266;14.188;2022-11-15T08:33:56;6.30;89.60
68476;DHT22;55464;48.266;14.188;2022-11-15T08:36:22;6.30;89.80
68476;DHT22;55464;48.266;14.188;2022-11-15T08:38:48;6.30;89.70
68476;DHT22;55464;48.266;14.188;2022-11-15T08:41:34;6.40;89.40
68476;DHT22;55464;48.266;14.188;2022-11-15T08:44:01;6.50;89.30
68476;DHT22;55464;48.266;14.188;2022-11-15T08:46:27;6.40;89.10
68476;DHT22;55464;48.266;14.188;2022-11-15T08:48:52;6.40;89.50
68476;DHT22;55464;48.266;14.188;2022-11-15T08:51:18;6.50;89.20
68476;DHT22;55464;48.266;14.188;2022-11-15T08:53:44;6.50;89.30
68476;DHT22;55464;48.266;14.188;2022-11-15T08:56:12;6.50;89.30
68476;DHT22;55464;48.266;14.188;2022-11-15T08:58:38;6.30;89.30
68476;DHT22;55464;48.266;14.188;2022-11-15T09:01:04;6.30;89.70
68476;DHT22;55464;48.266;14.188;2022-11-15T09:03:30;6.30;89.00
68476;DHT22;55464;48.266;14.188;2022-11-15T09:05:57;6.30;89.30
68476;DHT22;55464;48.266;14.188;2022-11-15T09:08:23;6.30;89.50
68476;DHT22;55464;48.266;14.188;2022-11-15T09:10:49;6.30;89.50
68476;DHT22;55464;48.266;14.188;2022-11-15T09:13:15;6.30;89.90
68476;DHT22;55464;48.266;14.188;2022-11-15T09:15:41;6.30;89.90
68476;DHT22;55464;48.266;14.188;2022-11-15T09:18:06;6.40;89.60
68476;DHT22;55464;48.266;14.188;2022-11-15T09:20:33;6.40;90.00
68476;DHT22;55464;48.266;14.188;2022-11-15T09:23:02;6.30;90.30
68476;DHT22;55464;48.266;14.188;2022-11-15T09:25:29;6.40;90.00
68476;DHT22;55464;48.266;14.188;2022-11-15T09:27:54;6.40;90.10
68476;DHT22;55464;48.266;14.188;2022-11-15T09:30:20;6.40;89.90
68476;DHT22;55464;48.266;14.188;2022-11-15T09:32:46;6.50;90.30
68476;DHT22;55464;48.266;14.188;2022-11-15T09:35:12;6.50;90.30
68476;DHT22;55464;48.266;14.188;2022-11-15T09:37:37;6.50;90.40
68476;DHT22;55464;48.266;14.188;2022-11-15T09:40:03;6.50;90.10
68476;DHT22;55464;48.266;14.188;2022-11-15T09:45:23;6.50;89.80
68476;DHT22;55464;48.266;14.188;2022-11-15T09:48:08;6.60;89.80
68476;DHT22;55464;48.266;14.188;2022-11-15T09:50:49;6.60;89.80
68476;DHT22;55464;48.266;14.188;2022-11-15T09:56:18;6.60;90.00
68476;DHT22;55464;48.266;14.188;2022-11-15T09:59:22;6.60;90.00
68476;DHT22;55464;48.266;14.188;2022-11-15T10:04:23;6.80;90.10
68476;DHT22;55464;48.266;14.188;2022-11-15T10:09:47;6.70;89.80
68476;DHT22;55464;48.266;14.188;2022-11-15T10:12:14;6.70;89.90
68476;DHT22;55464;48.266;14.188;2022-11-15T10:14:41;6.70;90.00
68476;DHT22;55464;48.266;14.188;2022-11-15T10:22:44;6.60;89.60
68476;DHT22;55464;48.266;14.188;2022-11-15T10:27:50;6.60;90.10
68476;DHT22;55464;48.266;14.188;2022-11-15T10:30:18;6.60;89.80
68476;DHT22;55464;48.266;14.188;2022-11-15T10:32:46;6.60;90.20
68476;DHT22;55464;48.266;14.188;2022-11-15T10:35:38;6.70;89.90
68476;DHT22;55464;48.266;14.188;2022-11-15T10:38:06;6.60;89.80
68476;DHT22;55464;48.266;14.188;2022-11-15T10:40:32;6.60;89.90
68476;DHT22;55464;48.266;14.188;2022-11-15T10:43:12;6.60;89.90
68476;DHT22;55464;48.266;14.188;2022-11-15T10:45:39;6.70;89.90
68476;DHT22;55464;48.266;14.188;2022-11-15T10:48:23;6.70;89.90
68476;DHT22;55464;48.266;14.188;2022-11-15T10:50:50;6.70;90.00
68476;DHT22;55464;48.266;14.188;2022-11-15T10:53:33;6.60;89.80
68476;DHT22;55464;48.266;14.188;2022-11-15T10:56:07;6.60;90.20
68476;DHT22;55464;48.266;14.188;2022-11-15T10:58:35;6.70;90.00
68476;DHT22;55464;48.266;14.188;2022-11-15T11:01:18;6.80;90.20
68476;DHT22;55464;48.266;14.188;2022-11-15T11:03:57;6.80;89.80
68476;DHT22;55464;48.266;14.188;2022-11-15T11:06:24;6.80;89.70
68476;DHT22;55464;48.266;14.188;2022-11-15T11:09:03;6.80;89.70
68476;DHT22;55464;48.266;14.188;2022-11-15T11:11:45;6.80;90.10
68476;DHT22;55464;48.266;14.188;2022-11-15T11:14:13;6.80;90.20
68476;DHT22;55464;48.266;14.188;2022-11-15T11:22:30;6.80;90.00
68476;DHT22;55464;48.266;14.188;2022-11-15T11:39:20;6.90;89.90
68476;DHT22;55464;48.266;14.188;2022-11-15T11:41:56;6.90;89.60
68476;DHT22;55464;48.266;14.188;2022-11-15T11:44:35;6.90;89.70
68476;DHT22;55464;48.266;14.188;2022-11-15T11:47:15;6.90;89.50
68476;DHT22;55464;48.266;14.188;2022-11-15T11:49:46;6.90;89.50
68476;DHT22;55464;48.266;14.188;2022-11-15T11:52:25;6.90;89.40
68476;DHT22;55464;48.266;14.188;2022-11-15T11:55:34;6.80;89.60
68476;DHT22;55464;48.266;14.188;2022-11-15T11:57:52;6.80;89.60
68476;DHT22;55464;48.266;14.188;2022-11-15T12:00:24;6.60;89.80
68476;DHT22;55464;48.266;14.188;2022-11-15T12:03:11;6.60;90.20
68476;DHT22;55464;48.266;14.188;2022-11-15T12:05:51;6.60;90.40
68476;DHT22;55464;48.266;14.188;2022-11-15T12:13:38;6.70;90.00
68476;DHT22;55464;48.266;14.188;2022-11-15T12:16:16;6.80;89.90
68476;DHT22;55464;48.266;14.188;2022-11-15T12:18:53;6.70;89.80
68476;DHT22;55464;48.266;14.188;2022-11-15T12:21:30;6.70;89.90
68476;DHT22;55464;48.266;14.188;2022-11-15T12:24:08;6.70;89.60
68476;DHT22;55464;48.266;14.188;2022-11-15T12:26:45;6.60;89.90
68476;DHT22;55464;48.266;14.188;2022-11-15T12:34:50;6.80;89.70
68476;DHT22;55464;48.266;14.188;2022-11-15T12:40:20;6.80;89.60
68476;DHT22;55464;48.266;14.188;2022-11-15T12:45:45;6.80;89.70
68476;DHT22;55464;48.266;14.188;2022-11-15T13:06:49;6.80;89.60
68476;DHT22;55464;48.266;14.188;2022-11-15T13:17:47;6.80;89.40
68476;DHT22;55464;48.266;14.188;2022-11-15T13:22:42;6.80;89.20
68476;DHT22;55464;48.266;14.188;2022-11-15T13:28:25;6.80;89.50
68476;DHT22;55464;48.266;14.188;2022-11-15T13:30:54;6.80;89.60
68476;DHT22;55464;48.266;14.188;2022-11-15T13:33:32;6.80;89.70
68476;DHT22;55464;48.266;14.188;2022-11-15T13:38:41;6.60;89.80
68476;DHT22;55464;48.266;14.188;2022-11-15T13:41:20;6.70;90.00
68476;DHT22;55464;48.266;14.188;2022-11-15T13:43:47;6.70;89.90
68476;DHT22;55464;48.266;14.188;2022-11-15T13:48:43;6.80;90.20
68476;DHT22;55464;48.266;14.188;2022-11-15T13:53:53;6.80;90.20
68476;DHT22;55464;48.266;14.188;2022-11-15T13:56:20;6.80;90.20
68476;DHT22;55464;48.266;14.188;2022-11-15T13:58:46;6.70;90.00
68476;DHT22;55464;48.266;14.188;2022-11-15T14:01:19;6.80;90.00
68476;DHT22;55464;48.266;14.188;2022-11-15T14:03:57;6.80;89.90
68476;DHT22;55464;48.266;14.188;2022-11-15T14:06:26;6.80;90.00
68476;DHT22;55464;48.266;14.188;2022-11-15T14:11:37;6.70;89.90
68476;DHT22;55464;48.266;14.188;2022-11-15T14:16:39;6.70;89.90
68476;DHT22;55464;48.266;14.188;2022-11-15T14:19:09;6.80;90.00
68476;DHT22;55464;48.266;14.188;2022-11-15T14:21:35;6.80;90.00
68476;DHT22;55464;48.266;14.188;2022-11-15T14:24:19;6.80;89.80
68476;DHT22;55464;48.266;14.188;2022-11-15T14:26:45;6.90;89.90
68476;DHT22;55464;48.266;14.188;2022-11-15T14:29:29;6.90;89.60
68476;DHT22;55464;48.266;14.188;2022-11-15T14:32:19;6.90;89.50
68476;DHT22;55464;48.266;14.188;2022-11-15T14:34:47;7.00;89.50
68476;DHT22;55464;48.266;14.188;2022-11-15T14:37:22;7.00;89.40
68476;DHT22;55464;48.266;14.188;2022-11-15T14:39:48;6.90;89.30
68476;DHT22;55464;48.266;14.188;2022-11-15T14:42:14;6.90;89.30
68476;DHT22;55464;48.266;14.188;2022-11-15T14:44:40;6.90;89.50
68476;DHT22;55464;48.266;14.188;2022-11-15T14:47:05;6.80;89.80
68476;DHT22;55464;48.266;14.188;2022-11-15T14:49:31;6.80;90.00
68476;DHT22;55464;48.266;14.188;2022-11-15T14:51:56;6.90;90.00
68476;DHT22;55464;48.266;14.188;2022-11-15T14:54:22;6.90;90.00
68476;DHT22;55464;48.266;14.188;2022-11-15T14:56:48;6.90;89.70
68476;DHT22;55464;48.266;14.188;2022-11-15T14:59:13;6.90;89.70
68476;DHT22;55464;48.266;14.188;2022-11-15T15:01:39;6.90;89.60
68476;DHT22;55464;48.266;14.188;2022-11-15T15:04:05;6.80;89.40
68476;DHT22;55464;48.266;14.188;2022-11-15T15:06:30;6.80;89.60
68476;DHT22;55464;48.266;14.188;2022-11-15T15:08:56;6.90;89.50
68476;DHT22;55464;48.266;14.188;2022-11-15T15:11:30;6.90;89.30
68476;DHT22;55464;48.266;14.188;2022-11-15T15:13:57;6.80;89.70
68476;DHT22;55464;48.266;14.188;2022-11-15T15:16:25;6.70;89.90
68476;DHT22;55464;48.266;14.188;2022-11-15T15:18:51;6.70;90.10
68476;DHT22;55464;48.266;14.188;2022-11-15T15:21:24;6.70;90.30
68476;DHT22;55464;48.266;14.188;2022-11-15T15:23:51;6.60;90.30
68476;DHT22;55464;48.266;14.188;2022-11-15T15:26:17;6.70;90.20
68476;DHT22;55464;48.266;14.188;2022-11-15T15:28:43;6.60;90.20
68476;DHT22;55464;48.266;14.188;2022-11-15T15:31:10;6.70;90.40
68476;DHT22;55464;48.266;14.188;2022-11-15T15:33:36;6.70;90.20
68476;DHT22;55464;48.266;14.188;2022-11-15T15:36:02;6.70;90.20
68476;DHT22;55464;48.266;14.188;2022-11-15T15:38:28;6.70;90.30
68476;DHT22;55464;48.266;14.188;2022-11-15T15:40:53;6.70;90.30
68476;DHT22;55464;48.266;14.188;2022-11-15T15:43:20;6.60;90.40
68476;DHT22;55464;48.266;14.188;2022-11-15T15:45:45;6.70;90.50
68476;DHT22;55464;48.266;14.188;2022-11-15T15:48:13;6.60;90.70
68476;DHT22;55464;48.266;14.188;2022-11-15T15:50:39;6.70;90.40
68476;DHT22;55464;48.266;14.188;2022-11-15T15:53:05;6.60;90.50
68476;DHT22;55464;48.266;14.188;2022-11-15T15:55:31;6.60;90.60
68476;DHT22;55464;48.266;14.188;2022-11-15T15:57:57;6.60;90.50
68476;DHT22;55464;48.266;14.188;2022-11-15T16:00:25;6.60;90.30
68476;DHT22;55464;48.266;14.188;2022-11-15T16:02:51;6.60;90.40
68476;DHT22;55464;48.266;14.188;2022-11-15T16:05:17;6.70;90.30
68476;DHT22;55464;48.266;14.188;2022-11-15T16:07:43;6.70;90.30
68476;DHT22;55464;48.266;14.188;2022-11-15T16:10:30;6.70;90.20
68476;DHT22;55464;48.266;14.188;2022-11-15T16:12:57;6.70;90.40
68476;DHT22;55464;48.266;14.188;2022-11-15T16:15:25;6.70;90.30
68476;DHT22;55464;48.266;14.188;2022-11-15T16:17:53;6.70;90.30
68476;DHT22;55464;48.266;14.188;2022-11-15T16:22:52;6.70;90.40
68476;DHT22;55464;48.266;14.188;2022-11-15T16:25:18;6.70;90.40
68476;DHT22;55464;48.266;14.188;2022-11-15T16:27:44;6.70;90.30
68476;DHT22;55464;48.266;14.188;2022-11-15T16:30:18;6.60;90.50
68476;DHT22;55464;48.266;14.188;2022-11-15T16:32:45;6.60;90.80
68476;DHT22;55464;48.266;14.188;2022-11-15T16:35:12;6.70;90.70
68476;DHT22;55464;48.266;14.188;2022-11-15T16:37:38;6.70;90.70
68476;DHT22;55464;48.266;14.188;2022-11-15T16:40:35;6.80;90.50
68476;DHT22;55464;48.266;14.188;2022-11-15T16:43:01;6.70;90.60
68476;DHT22;55464;48.266;14.188;2022-11-15T16:45:28;6.80;90.60
68476;DHT22;55464;48.266;14.188;2022-11-15T16:47:55;6.80;90.50
68476;DHT22;55464;48.266;14.188;2022-11-15T16:50:32;6.70;90.50
68476;DHT22;55464;48.266;14.188;2022-11-15T16:52:59;6.70;90.50
68476;DHT22;55464;48.266;14.188;2022-11-15T16:55:27;6.70;90.50
68476;DHT22;55464;48.266;14.188;2022-11-15T16:57:54;6.70;90.40
68476;DHT22;55464;48.266;14.188;2022-11-15T17:00:20;6.70;90.40
68476;DHT22;55464;48.266;14.188;2022-11-15T17:02:49;6.80;90.50
68476;DHT22;55464;48.266;14.188;2022-11-15T17:05:17;6.80;90.50
68476;DHT22;55464;48.266;14.188;2022-11-15T17:07:45;6.80;90.50
68476;DHT22;55464;48.266;14.188;2022-11-15T17:10:11;6.80;90.50
68476;DHT22;55464;48.266;14.188;2022-11-15T17:12:37;6.80;90.70
68476;DHT22;55464;48.266;14.188;2022-11-15T17:15:03;6.80;90.60
68476;DHT22;55464;48.266;14.188;2022-11-15T17:17:29;6.80;90.70
68476;DHT22;55464;48.266;14.188;2022-11-15T17:19:55;6.80;90.60
68476;DHT22;55464;48.266;14.188;2022-11-15T17:22:21;6.80;90.60
68476;DHT22;55464;48.266;14.188;2022-11-15T17:24:47;6.80;90.60
68476;DHT22;55464;48.266;14.188;2022-11-15T17:27:13;6.80;90.50
68476;DHT22;55464;48.266;14.188;2022-11-15T17:29:40;6.70;90.70
68476;DHT22;55464;48.266;14.188;2022-11-15T17:32:06;6.80;90.60
68476;DHT22;55464;48.266;14.188;2022-11-15T17:34:32;6.80;90.50
68476;DHT22;55464;48.266;14.188;2022-11-15T17:36:58;6.80;90.50
68476;DHT22;55464;48.266;14.188;2022-11-15T17:39:23;6.80;90.50